createdAt,value
2022-10-16T00:01:44.484Z,100539.09
2022-10-16T00:04:12.248Z,100567.50
2022-10-16T00:06:40.161Z,100580.75
2022-10-16T00:09:08.107Z,100552.50
2022-10-16T00:11:38.703Z,100598.66
2022-10-16T00:14:09.631Z,100541.41
2022-10-16T00:16:37.726Z,100600.91
2022-10-16T00:19:06.263Z,100587.38
2022-10-16T00:21:34.641Z,100573.16
2022-10-16T00:24:20.952Z,100575.59
2022-10-16T00:26:50.848Z,100575.91
2022-10-16T00:29:18.539Z,100573.97
2022-10-16T00:31:46.358Z,100532.03
2022-10-16T00:34:13.905Z,100581.38
2022-10-16T00:36:41.617Z,100574.25
2022-10-16T00:39:10.153Z,100543.59
2022-10-16T00:41:37.724Z,100557.00
2022-10-16T00:44:43.683Z,100568.28
2022-10-16T00:47:15.929Z,100569.41
2022-10-16T00:49:43.835Z,100527.97
2022-10-16T00:52:12.189Z,100563.94
2022-10-16T00:54:39.794Z,100546.19
2022-10-16T00:57:08.157Z,100562.31
2022-10-16T00:59:39.254Z,100547.16
2022-10-16T01:02:12.649Z,100556.50
2022-10-16T01:04:44.057Z,100549.84
2022-10-16T01:07:18.583Z,100549.84
2022-10-16T01:10:18.014Z,100536.13
2022-10-16T01:12:51.886Z,100547.44
2022-10-16T01:15:30.068Z,100483.47
2022-10-16T01:18:15.662Z,100551.34
2022-10-16T01:20:59.533Z,100520.97
2022-10-16T01:23:51.702Z,100539.53
2022-10-16T01:26:23.161Z,100545.38
2022-10-16T01:29:02.798Z,100469.94
2022-10-16T01:31:35.112Z,100542.63
2022-10-16T01:34:12.191Z,100501.34
2022-10-16T01:36:48.422Z,100518.72
2022-10-16T01:39:19.965Z,100485.34
2022-10-16T01:41:57.342Z,100511.63
2022-10-16T01:44:30.255Z,100505.50
2022-10-16T01:46:58.604Z,100517.75
2022-10-16T01:49:31.090Z,100484.06
2022-10-16T01:54:32.811Z,100496.31
2022-10-16T01:57:01.096Z,100539.22
2022-10-16T01:59:33.106Z,100489.13
2022-10-16T02:02:05.342Z,100549.41
2022-10-16T02:04:37.908Z,100543.09
2022-10-16T02:07:06.380Z,100544.72
2022-10-16T02:09:36.254Z,100542.28
2022-10-16T02:12:11.278Z,100494.44
2022-10-16T02:14:40.548Z,100558.78
2022-10-16T02:17:15.364Z,100563.47
2022-10-16T02:19:45.883Z,100558.78
2022-10-16T02:22:23.097Z,100563.94
2022-10-16T02:25:11.957Z,100569.75
2022-10-16T02:27:54.866Z,100569.44
2022-10-16T02:30:31.568Z,100563.13
2022-10-16T02:33:00.358Z,100573.66
2022-10-16T02:35:29.090Z,100536.53
2022-10-16T02:37:58.341Z,100551.69
2022-10-16T02:40:27.692Z,100506.19
2022-10-16T02:42:56.374Z,100483.47
2022-10-16T02:45:24.912Z,100556.03
2022-10-16T02:47:52.834Z,100406.94
2022-10-16T02:50:20.588Z,100548.28
2022-10-16T02:52:48.376Z,100519.72
2022-10-16T02:55:16.219Z,100502.03
2022-10-16T02:57:44.056Z,100547.78
2022-10-16T03:00:15.849Z,100507.31
2022-10-16T03:02:43.733Z,100497.34
2022-10-16T03:05:12.072Z,100489.59
2022-10-16T03:07:40.392Z,100541.66
2022-10-16T03:10:08.692Z,100517.16
2022-10-16T03:12:36.394Z,100522.13
2022-10-16T03:15:04.510Z,100538.59
2022-10-16T03:17:33.252Z,100526.97
2022-10-16T03:20:00.896Z,100510.66
2022-10-16T03:22:29.226Z,100472.34
2022-10-16T03:24:56.879Z,100473.63
2022-10-16T03:27:24.877Z,100511.97
2022-10-16T03:29:53.042Z,100522.28
2022-10-16T03:32:21.447Z,100503.94
2022-10-16T03:34:49.047Z,100485.03
2022-10-16T03:37:17.236Z,100502.50
2022-10-16T03:39:44.820Z,100537.94
2022-10-16T03:42:12.509Z,100455.59
2022-10-16T03:44:40.269Z,100490.41
2022-10-16T03:47:08.025Z,100532.75
2022-10-16T03:49:35.728Z,100522.63
2022-10-16T03:52:03.837Z,100508.94
2022-10-16T03:54:31.572Z,100539.09
2022-10-16T03:56:59.286Z,100522.59
2022-10-16T03:59:26.962Z,100499.38
2022-10-16T04:01:55.281Z,100532.44
2022-10-16T04:04:22.872Z,100491.25
2022-10-16T04:06:50.616Z,100542.94
2022-10-16T04:09:18.390Z,100528.59
2022-10-16T04:11:46.067Z,100543.44
2022-10-16T04:14:14.825Z,100522.00
2022-10-16T04:16:42.568Z,100546.19
2022-10-16T04:19:11.717Z,100551.69
2022-10-16T04:21:39.411Z,100534.59
2022-10-16T04:24:07.013Z,100565.41
2022-10-16T04:26:34.894Z,100523.19
2022-10-16T04:29:02.597Z,100538.47
2022-10-16T04:31:30.167Z,100529.78
2022-10-16T04:33:57.680Z,100504.78
2022-10-16T04:36:28.255Z,100522.38
2022-10-16T04:38:56.954Z,100544.56
2022-10-16T04:41:24.880Z,100558.59
2022-10-16T04:43:52.515Z,100534.16
2022-10-16T04:46:20.187Z,100570.41
2022-10-16T04:48:47.962Z,100539.13
2022-10-16T04:51:15.586Z,100506.25
2022-10-16T04:53:43.238Z,100551.06
2022-10-16T04:56:10.956Z,100511.91
2022-10-16T04:58:38.561Z,100534.75
2022-10-16T05:01:06.217Z,100480.66
2022-10-16T05:03:33.857Z,100548.78
2022-10-16T05:06:01.635Z,100580.09
2022-10-16T05:08:29.382Z,100574.63
2022-10-16T05:10:57.188Z,100551.22
2022-10-16T05:13:25.109Z,100553.16
2022-10-16T05:15:53.102Z,100555.91
2022-10-16T05:18:20.749Z,100545.75
2022-10-16T05:20:48.342Z,100584.63
2022-10-16T05:23:16.111Z,100538.84
2022-10-16T05:25:43.763Z,100595.44
2022-10-16T05:28:11.489Z,100562.09
2022-10-16T05:30:40.917Z,100580.66
2022-10-16T05:33:08.776Z,100582.09
2022-10-16T05:35:36.591Z,100614.06
2022-10-16T05:38:04.396Z,100553.38
2022-10-16T05:40:31.926Z,100579.34
2022-10-16T05:42:59.567Z,100619.56
2022-10-16T05:45:27.129Z,100619.56
2022-10-16T05:47:54.740Z,100621.31
2022-10-16T05:50:22.456Z,100622.28
2022-10-16T05:52:50.224Z,100592.31
2022-10-16T05:55:18.021Z,100609.41
2022-10-16T05:57:48.588Z,100618.72
2022-10-16T06:00:16.322Z,100581.78
2022-10-16T06:02:44.146Z,100613.25
2022-10-16T06:05:11.862Z,100580.53
2022-10-16T06:07:39.590Z,100618.25
2022-10-16T06:10:07.935Z,100623.13
2022-10-16T06:12:35.434Z,100628.13
2022-10-16T06:15:03.325Z,100621.19
2022-10-16T06:17:31.176Z,100620.38
2022-10-16T06:19:58.908Z,100638.59
2022-10-16T06:22:26.574Z,100611.03
2022-10-16T06:24:54.277Z,100649.25
2022-10-16T06:27:22.115Z,100637.47
2022-10-16T06:29:49.841Z,100636.66
2022-10-16T06:32:17.454Z,100612.81
2022-10-16T06:34:46.379Z,100437.59
2022-10-16T06:37:14.091Z,100614.28
2022-10-16T06:39:41.985Z,100580.53
2022-10-16T06:42:09.883Z,100634.09
2022-10-16T06:44:37.560Z,100607.66
2022-10-16T06:47:06.157Z,100657.34
2022-10-16T06:49:33.761Z,100597.97
2022-10-16T06:52:02.702Z,100661.72
2022-10-16T06:54:30.355Z,100668.00
2022-10-16T06:56:58.200Z,100644.94
2022-10-16T06:59:25.864Z,100639.44
2022-10-16T07:01:53.490Z,100672.69
2022-10-16T07:04:21.229Z,100643.78
2022-10-16T07:06:48.786Z,100672.69
2022-10-16T07:09:16.452Z,100641.88
2022-10-16T07:11:44.127Z,100672.03
2022-10-16T07:14:17.959Z,100625.56
2022-10-16T07:16:45.769Z,100652.50
2022-10-16T07:19:15.525Z,100631.84
2022-10-16T07:21:44.047Z,100673.84
2022-10-16T07:24:17.146Z,100680.94
2022-10-16T07:26:47.222Z,100693.84
2022-10-16T07:29:20.393Z,100684.16
2022-10-16T07:31:49.226Z,100704.69
2022-10-16T07:34:19.441Z,100711.78
2022-10-16T07:36:50.082Z,100711.44
2022-10-16T07:39:18.342Z,100693.84
2022-10-16T07:41:46.365Z,100679.97
2022-10-16T07:44:14.035Z,100683.03
2022-10-16T07:46:41.555Z,100730.34
2022-10-16T07:49:09.918Z,100731.97
2022-10-16T07:51:39.474Z,100698.84
2022-10-16T07:54:07.143Z,100733.09
2022-10-16T07:56:35.445Z,100742.47
2022-10-16T07:59:04.352Z,100684.31
2022-10-16T08:01:32.164Z,100731.00
2022-10-16T08:03:59.797Z,100746.16
2022-10-16T08:06:28.079Z,100751.19
2022-10-16T08:08:57.259Z,100754.25
2022-10-16T08:11:25.275Z,100744.22
2022-10-16T08:13:52.939Z,100765.25
2022-10-16T08:16:21.118Z,100750.53
2022-10-16T08:18:48.911Z,100766.84
2022-10-16T08:21:21.669Z,100729.53
2022-10-16T08:23:54.734Z,100764.25
2022-10-16T08:26:26.879Z,100773.94
2022-10-16T08:28:55.121Z,100742.75
2022-10-16T08:31:23.031Z,100726.94
2022-10-16T08:33:51.049Z,100786.22
2022-10-16T08:36:18.710Z,100782.84
2022-10-16T08:38:49.875Z,100789.94
2022-10-16T08:41:49.875Z,100789.63
2022-10-16T08:44:26.627Z,100787.19
2022-10-16T08:47:07.033Z,100791.88
2022-10-16T08:49:36.666Z,100794.31
2022-10-16T08:52:04.409Z,100788.00
2022-10-16T08:54:49.211Z,100799.78
2022-10-16T08:57:25.424Z,100795.91
2022-10-16T08:59:55.869Z,100746.81
2022-10-16T09:02:46.670Z,100793.34
2022-10-16T09:05:31.690Z,100780.91
2022-10-16T09:08:31.130Z,100793.53
2022-10-16T09:11:05.824Z,100791.44
2022-10-16T09:13:54.521Z,100800.63
2022-10-16T09:16:22.917Z,100799.69
2022-10-16T09:18:56.541Z,100814.69
2022-10-16T09:21:29.784Z,100783.69
2022-10-16T09:24:14.895Z,100817.94
2022-10-16T09:26:43.659Z,100788.34
2022-10-16T09:29:22.874Z,100820.03
2022-10-16T09:31:50.558Z,100812.59
2022-10-16T09:34:32.845Z,100817.63
2022-10-16T09:37:02.501Z,100790.78
2022-10-16T09:39:30.245Z,100746.97
2022-10-16T09:41:58.085Z,100815.03
2022-10-16T09:44:32.998Z,100820.03
2022-10-16T09:47:06.136Z,100818.25
2022-10-16T09:49:33.718Z,100827.00
2022-10-16T09:52:16.407Z,100825.03
2022-10-16T09:54:55.730Z,100783.34
2022-10-16T09:57:24.926Z,100829.53
2022-10-16T09:59:55.563Z,100740.38
2022-10-16T10:02:37.264Z,100812.25
2022-10-16T10:05:20.416Z,100834.22
2022-10-16T10:07:58.465Z,100846.81
2022-10-16T10:10:31.808Z,100794.81
2022-10-16T10:13:00.103Z,100811.78
2022-10-16T10:15:34.136Z,100830.03
2022-10-16T10:18:04.658Z,100828.41
2022-10-16T10:20:35.614Z,100803.69
2022-10-16T10:23:24.071Z,100833.25
2022-10-16T10:26:16.459Z,100835.19
2022-10-16T10:29:13.332Z,100809.19
2022-10-16T10:31:51.136Z,100831.97
2022-10-16T10:34:44.826Z,100822.59
2022-10-16T10:37:38.790Z,100813.72
2022-10-16T10:40:22.682Z,100827.28
2022-10-16T10:43:28.452Z,100820.31
2022-10-16T10:46:06.423Z,100794.63
2022-10-16T10:49:04.303Z,100832.59
2022-10-16T10:51:45.550Z,100838.41
2022-10-16T10:54:46.767Z,100823.88
2022-10-16T10:57:32.638Z,100752.50
2022-10-16T11:00:10.585Z,100836.47
2022-10-16T11:03:01.379Z,100819.50
2022-10-16T11:05:35.148Z,100828.41
2022-10-16T11:08:08.854Z,100825.31
2022-10-16T11:11:01.006Z,100807.22
2022-10-16T11:13:56.544Z,100815.94
2022-10-16T11:16:30.100Z,100813.66
2022-10-16T11:19:36.403Z,100789.94
2022-10-16T11:22:33.197Z,100761.84
2022-10-16T11:25:12.863Z,100819.97
2022-10-16T11:27:44.448Z,100817.72
2022-10-16T11:30:24.071Z,100817.88
2022-10-16T11:33:10.527Z,100806.06
2022-10-16T11:35:54.514Z,100810.78
2022-10-16T11:38:30.488Z,100804.47
2022-10-16T11:41:04.957Z,100785.38
2022-10-16T11:43:40.748Z,100804.28
2022-10-16T11:46:20.884Z,100771.16
2022-10-16T11:49:09.453Z,100800.25
2022-10-16T11:51:41.500Z,100761.94
2022-10-16T11:54:26.083Z,100775.53
2022-10-16T11:56:59.321Z,100786.50
2022-10-16T11:59:44.730Z,100777.47
2022-10-16T12:02:28.462Z,100768.41
2022-10-16T12:05:25.661Z,100754.38
2022-10-16T12:08:14.659Z,100780.66
2022-10-16T12:10:45.059Z,100779.72
2022-10-16T12:13:33.482Z,100776.63
2022-10-16T12:16:13.305Z,100780.19
2022-10-16T12:18:50.409Z,100767.75
2022-10-16T12:21:20.282Z,100760.50
2022-10-16T12:23:49.830Z,100772.41
2022-10-16T12:26:28.976Z,100703.66
2022-10-16T12:28:58.923Z,100775.16
2022-10-16T12:31:49.765Z,100738.22
2022-10-16T12:34:29.901Z,100767.25
2022-10-16T12:37:10.180Z,100767.59
2022-10-16T12:39:39.258Z,100768.06
2022-10-16T12:42:27.207Z,100711.59
2022-10-16T12:44:56.179Z,100782.59
2022-10-16T12:47:51.070Z,100766.31
2022-10-16T12:50:37.472Z,100770.16
2022-10-16T12:53:27.782Z,100725.44
2022-10-16T12:56:04.569Z,100783.06
2022-10-16T12:58:44.206Z,100788.09
2022-10-16T13:01:14.665Z,100788.09
2022-10-16T13:04:01.704Z,100764.06
2022-10-16T13:06:32.491Z,100789.59
2022-10-16T13:09:09.013Z,100794.28
2022-10-16T13:11:48.661Z,100801.38
2022-10-16T13:14:36.988Z,100788.78
2022-10-16T13:17:37.132Z,100788.09
2022-10-16T13:20:26.736Z,100762.41
2022-10-16T13:23:16.000Z,100778.25
2022-10-16T13:26:21.570Z,100721.78
2022-10-16T13:28:49.674Z,100775.84
2022-10-16T13:31:25.727Z,100778.75
2022-10-16T13:33:56.971Z,100715.78
2022-10-16T13:36:28.952Z,100737.13
2022-10-16T13:39:15.604Z,100790.53
2022-10-16T13:41:43.343Z,100756.50
2022-10-16T13:44:21.361Z,100792.03
2022-10-16T13:47:00.369Z,100786.84
2022-10-16T13:49:28.241Z,100782.31
2022-10-16T13:52:00.853Z,100783.94
2022-10-16T13:54:32.151Z,100793.28
2022-10-16T13:57:22.592Z,100791.69
2022-10-16T13:59:54.694Z,100786.53
2022-10-16T14:02:32.808Z,100768.41
2022-10-16T14:05:00.602Z,100773.91
2022-10-16T14:07:32.641Z,100753.69
2022-10-16T14:10:06.841Z,100768.72
2022-10-16T14:12:35.644Z,100771.94
2022-10-16T14:15:03.750Z,100687.19
2022-10-16T14:17:35.155Z,100777.78
2022-10-16T14:20:07.464Z,100775.50
2022-10-16T14:22:42.725Z,100780.19
2022-10-16T14:25:32.264Z,100782.09
2022-10-16T14:28:20.270Z,100772.06
2022-10-16T14:30:55.549Z,100776.75
2022-10-16T14:33:30.035Z,100777.25
2022-10-16T14:36:03.829Z,100773.69
2022-10-16T14:38:32.633Z,100773.69
2022-10-16T14:41:01.398Z,100672.97
2022-10-16T14:43:46.412Z,100756.72
2022-10-16T14:46:18.922Z,100781.78
2022-10-16T14:48:52.531Z,100731.25
2022-10-16T14:51:21.429Z,100750.63
2022-10-16T14:53:49.055Z,100777.09
2022-10-16T14:56:24.066Z,100761.28
2022-10-16T14:58:52.686Z,100722.22
2022-10-16T15:01:20.970Z,100784.22
2022-10-16T15:03:49.090Z,100751.59
2022-10-16T15:06:17.547Z,100775.97
2022-10-16T15:08:45.331Z,100749.97
2022-10-16T15:11:19.035Z,100730.28
2022-10-16T15:13:47.450Z,100729.31
2022-10-16T15:16:17.627Z,100768.84
2022-10-16T15:18:45.631Z,100776.47
2022-10-16T15:21:25.428Z,100790.53
2022-10-16T15:23:53.488Z,100782.28
2022-10-16T15:26:21.082Z,100774.53
2022-10-16T15:28:48.889Z,100761.47
2022-10-16T15:31:16.696Z,100773.59
2022-10-16T15:33:44.587Z,100750.38
2022-10-16T15:36:12.360Z,100793.28
2022-10-16T15:38:40.354Z,100733.25
2022-10-16T15:41:08.030Z,100803.31
2022-10-16T15:43:35.768Z,100752.28
2022-10-16T15:46:11.553Z,100807.22
2022-10-16T15:48:39.426Z,100812.72
2022-10-16T15:51:08.908Z,100751.16
2022-10-16T15:53:38.413Z,100818.22
2022-10-16T15:56:07.627Z,100813.34
2022-10-16T15:58:35.877Z,100770.22
2022-10-16T16:01:05.430Z,100803.50
2022-10-16T16:03:33.590Z,100804.78
2022-10-16T16:06:11.611Z,100822.41
2022-10-16T16:08:39.657Z,100813.34
2022-10-16T16:11:09.794Z,100782.69
2022-10-16T16:13:41.194Z,100821.59
2022-10-16T16:16:11.467Z,100810.47
2022-10-16T16:18:39.501Z,100829.22
2022-10-16T16:21:07.986Z,100825.66
2022-10-16T16:23:36.790Z,100834.72
2022-10-16T16:26:11.041Z,100836.94
2022-10-16T16:28:40.848Z,100819.06
2022-10-16T16:31:08.669Z,100815.00
2022-10-16T16:33:36.564Z,100832.59
2022-10-16T16:36:11.570Z,100853.78
2022-10-16T16:38:42.343Z,100817.59
2022-10-16T16:41:14.473Z,100842.78
2022-10-16T16:43:42.706Z,100844.91
2022-10-16T16:46:11.307Z,100821.81
2022-10-16T16:48:39.425Z,100809.03
2022-10-16T16:51:16.490Z,100834.75
2022-10-16T16:53:49.805Z,100843.94
2022-10-16T16:56:17.982Z,100846.66
2022-10-16T16:58:54.675Z,100842.00
2022-10-16T17:01:23.311Z,100861.22
2022-10-16T17:03:53.168Z,100856.84
2022-10-16T17:06:23.734Z,100876.56
2022-10-16T17:08:51.823Z,100884.19
2022-10-16T17:11:25.957Z,100880.31
2022-10-16T17:13:56.817Z,100873.03
2022-10-16T17:16:35.292Z,100868.19
2022-10-16T17:19:06.240Z,100892.91
2022-10-16T17:21:34.505Z,100878.53
2022-10-16T17:24:02.704Z,100854.59
2022-10-16T17:26:31.209Z,100895.53
2022-10-16T17:29:01.681Z,100852.34
2022-10-16T17:31:32.220Z,100887.75
2022-10-16T17:34:01.527Z,100910.09
2022-10-16T17:36:33.506Z,100874.66
2022-10-16T17:39:05.123Z,100866.91
2022-10-16T17:41:33.950Z,100877.72
2022-10-16T17:44:02.370Z,100924.44
2022-10-16T17:46:30.146Z,100897.13
2022-10-16T17:48:57.882Z,100902.63
2022-10-16T17:51:30.900Z,100940.78
2022-10-16T17:54:01.369Z,100936.25
2022-10-16T17:56:30.501Z,100932.69
2022-10-16T17:59:00.266Z,100898.75
2022-10-16T18:01:31.227Z,100959.38
2022-10-16T18:04:05.347Z,100957.94
2022-10-16T18:06:34.631Z,100910.38
2022-10-16T18:09:03.090Z,100954.88
2022-10-16T18:11:31.437Z,100906.81
2022-10-16T18:14:00.212Z,100971.41
2022-10-16T18:16:30.032Z,100947.09
2022-10-16T18:18:59.126Z,100974.28
2022-10-16T18:21:28.518Z,100979.16
2022-10-16T18:23:58.909Z,100932.38
2022-10-16T18:26:27.028Z,100977.84
2022-10-16T18:28:57.159Z,100973.66
2022-10-16T18:31:28.811Z,100969.25
2022-10-16T18:33:56.918Z,100968.44
2022-10-16T18:36:33.441Z,100985.28
2022-10-16T18:39:09.405Z,100932.38
2022-10-16T18:41:44.903Z,100985.28
2022-10-16T18:44:13.412Z,100995.47
2022-10-16T18:46:41.757Z,100976.22
2022-10-16T18:49:10.290Z,100988.00
2022-10-16T18:51:41.259Z,100940.28
2022-10-16T18:54:11.001Z,101000.50
2022-10-16T18:56:39.343Z,100969.09
2022-10-16T18:59:10.208Z,100987.09
2022-10-16T19:01:39.371Z,100992.25
2022-10-16T19:04:10.373Z,100988.00
2022-10-16T19:06:40.777Z,100995.13
2022-10-16T19:09:08.703Z,100980.56
2022-10-16T19:11:40.652Z,100981.22
2022-10-16T19:14:10.879Z,101011.28
2022-10-16T19:16:39.163Z,100959.22
2022-10-16T19:19:10.932Z,101018.72
2022-10-16T19:21:42.047Z,100995.28
2022-10-16T19:24:14.141Z,101015.50
2022-10-16T19:26:43.683Z,101022.63
2022-10-16T19:29:11.691Z,101014.38
2022-10-16T19:31:40.008Z,101004.97
2022-10-16T19:34:09.952Z,100997.38
2022-10-16T19:36:39.527Z,101017.78
2022-10-16T19:39:15.509Z,100996.41
2022-10-16T19:41:44.193Z,101004.84
2022-10-16T19:44:14.687Z,101023.28
2022-10-16T19:46:43.192Z,100954.66
2022-10-16T19:49:14.514Z,101022.94
2022-10-16T19:51:42.401Z,101046.56
2022-10-16T19:54:14.591Z,101046.78
2022-10-16T19:56:43.262Z,100997.38
2022-10-16T19:59:13.518Z,101027.97
2022-10-16T20:01:41.633Z,100998.81
2022-10-16T20:04:09.857Z,101044.97
2022-10-16T20:06:37.943Z,101008.53
2022-10-16T20:09:06.476Z,101044.97
2022-10-16T20:11:36.588Z,101046.59
2022-10-16T20:14:06.073Z,101055.66
2022-10-16T20:16:34.732Z,101052.09
2022-10-16T20:19:03.803Z,101061.47
2022-10-16T20:21:33.932Z,101055.97
2022-10-16T20:24:05.206Z,101053.72
2022-10-16T20:26:33.312Z,101055.97
2022-10-16T20:29:01.458Z,101029.25
2022-10-16T20:31:31.428Z,101061.47
2022-10-16T20:34:03.599Z,101063.09
2022-10-16T20:36:31.879Z,101051.41
2022-10-16T20:39:00.527Z,101079.44
2022-10-16T20:41:28.532Z,101043.81
2022-10-16T20:43:56.527Z,101074.63
2022-10-16T20:46:27.480Z,100996.41
2022-10-16T20:49:05.926Z,101036.88
2022-10-16T20:51:40.305Z,100967.28
2022-10-16T20:54:08.152Z,101024.41
2022-10-16T20:56:37.687Z,101057.44
2022-10-16T20:59:06.156Z,101035.09
2022-10-16T21:01:36.614Z,101051.47
2022-10-16T21:04:08.300Z,101052.56
2022-10-16T21:06:39.059Z,101029.72
2022-10-16T21:09:07.221Z,101025.53
2022-10-16T21:11:36.891Z,101055.97
2022-10-16T21:14:07.679Z,101065.38
2022-10-16T21:16:36.909Z,101062.63
2022-10-16T21:19:04.840Z,101009.00
2022-10-16T21:21:38.611Z,101048.06
2022-10-16T21:24:12.023Z,101041.28
2022-10-16T21:26:43.750Z,101055.84
2022-10-16T21:29:11.966Z,101037.34
2022-10-16T21:31:40.369Z,101050.28
2022-10-16T21:34:08.188Z,101055.03
2022-10-16T21:36:38.009Z,101051.44
2022-10-16T21:39:07.398Z,101050.63
2022-10-16T21:41:35.958Z,101048.97
2022-10-16T21:44:04.562Z,101052.88
2022-10-16T21:46:36.390Z,101007.69
2022-10-16T21:49:06.204Z,101055.63
2022-10-16T21:51:37.501Z,101061.13
2022-10-16T21:54:07.778Z,101066.94
2022-10-16T21:56:35.723Z,101069.69
2022-10-16T21:59:04.084Z,101065.94
2022-10-16T22:01:32.285Z,100986.16
2022-10-16T22:04:00.101Z,101071.16
2022-10-16T22:06:29.081Z,101070.47
2022-10-16T22:09:00.070Z,101078.09
2022-10-16T22:11:36.998Z,101080.53
2022-10-16T22:14:07.580Z,101072.91
2022-10-16T22:16:36.674Z,101011.91
2022-10-16T22:19:07.617Z,101034.38
2022-10-16T22:21:37.206Z,101071.28
2022-10-16T22:24:06.293Z,101070.16
2022-10-16T22:26:34.913Z,101053.16
2022-10-16T22:29:02.945Z,101037.78
2022-10-16T22:31:31.055Z,101060.94
2022-10-16T22:34:02.382Z,101071.78
2022-10-16T22:36:31.634Z,101080.34
2022-10-16T22:38:59.296Z,101080.34
2022-10-16T22:41:27.001Z,101072.72
2022-10-16T22:43:54.724Z,101084.22
2022-10-16T22:46:26.153Z,101078.56
2022-10-16T22:48:55.903Z,101012.94
2022-10-16T22:51:25.481Z,101084.88
2022-10-16T22:53:53.057Z,101023.16
2022-10-16T22:56:21.787Z,101093.94
2022-10-16T22:58:50.230Z,101092.81
2022-10-16T23:01:28.021Z,101092.81
2022-10-16T23:03:56.018Z,101022.81
2022-10-16T23:06:24.568Z,101109.31
2022-10-16T23:08:53.862Z,101111.56
2022-10-16T23:11:21.868Z,101108.47
2022-10-16T23:13:49.782Z,101093.56
2022-10-16T23:16:20.363Z,101084.50
2022-10-16T23:18:49.555Z,101121.44
2022-10-16T23:21:21.002Z,101117.06
2022-10-16T23:23:50.122Z,101117.06
2022-10-16T23:26:26.202Z,101114.59
2022-10-16T23:28:57.793Z,101121.41
2022-10-16T23:31:26.449Z,101075.56
2022-10-16T23:33:55.856Z,101113.97
2022-10-16T23:36:24.076Z,101106.78
2022-10-16T23:38:52.084Z,101139.06
2022-10-16T23:41:20.442Z,101134.66
2022-10-16T23:43:48.346Z,101124.44
2022-10-16T23:46:16.048Z,101075.06
2022-10-16T23:48:44.405Z,101118.44
2022-10-16T23:51:12.813Z,101138.38
2022-10-16T23:53:40.934Z,101108.72
2022-10-16T23:56:08.896Z,101119.59
2022-10-16T23:58:37.811Z,101112.78
